createdAt,value
2024-01-26T00:00:09.754Z,3.30
2024-01-26T00:05:37.287Z,3.10
2024-01-26T00:10:39.498Z,3.60
2024-01-26T00:15:41.628Z,3.50
2024-01-26T00:20:43.827Z,3.20
2024-01-26T00:25:46.114Z,4.60
2024-01-26T00:30:48.670Z,3.80
2024-01-26T00:36:04.384Z,3.40
2024-01-26T00:41:06.959Z,4.30
2024-01-26T00:46:12.036Z,3.30
2024-01-26T00:51:17.993Z,3.90
2024-01-26T00:56:20.200Z,2.50
2024-01-26T01:01:24.514Z,3.00
2024-01-26T01:06:27.244Z,3.10
2024-01-26T01:11:41.305Z,4.00
2024-01-26T01:16:43.509Z,3.40
2024-01-26T01:21:48.381Z,2.80
2024-01-26T01:26:50.400Z,2.30
2024-01-26T01:31:52.888Z,2.50
2024-01-26T01:37:15.424Z,4.00
2024-01-26T01:42:17.404Z,4.30
2024-01-26T01:47:27.208Z,3.10
2024-01-26T01:52:30.059Z,3.00
2024-01-26T01:57:33.144Z,3.40
2024-01-26T02:02:36.439Z,5.00
2024-01-26T02:08:19.431Z,3.00
2024-01-26T02:13:21.572Z,4.30
2024-01-26T02:18:26.766Z,2.90
2024-01-26T02:23:48.763Z,3.70
2024-01-26T02:28:53.508Z,4.20
2024-01-26T02:33:55.687Z,6.80
2024-01-26T02:39:00.915Z,5.30
2024-01-26T02:44:03.529Z,4.40
2024-01-26T02:49:06.678Z,4.10
2024-01-26T02:54:09.014Z,4.50
2024-01-26T02:59:11.401Z,5.80
2024-01-26T03:04:16.189Z,4.60
2024-01-26T03:09:18.650Z,3.80
2024-01-26T03:14:23.979Z,3.20
2024-01-26T03:19:46.407Z,3.80
2024-01-26T03:30:02.187Z,3.10
2024-01-26T03:35:05.867Z,2.60
2024-01-26T03:40:08.640Z,3.30
2024-01-26T03:45:21.233Z,3.10
2024-01-26T03:50:26.398Z,2.90
2024-01-26T03:55:28.884Z,4.50
2024-01-26T04:00:44.072Z,4.30
2024-01-26T04:06:08.897Z,3.00
2024-01-26T04:11:13.334Z,4.30
2024-01-26T04:16:15.684Z,2.70
2024-01-26T04:21:27.859Z,4.00
2024-01-26T04:26:30.211Z,2.40
2024-01-26T04:31:32.502Z,2.60
2024-01-26T04:36:34.754Z,2.60
2024-01-26T04:41:47.988Z,2.40
2024-01-26T04:47:24.213Z,3.80
2024-01-26T04:52:50.142Z,3.40
2024-01-26T04:57:52.322Z,3.60
2024-01-26T05:02:54.639Z,3.60
2024-01-26T05:08:19.644Z,3.50
2024-01-26T05:13:42.153Z,3.70
2024-01-26T05:18:44.753Z,4.00
2024-01-26T05:23:49.548Z,4.70
2024-01-26T05:29:23.991Z,4.70
2024-01-26T05:34:35.261Z,5.40
2024-01-26T05:40:08.140Z,4.60
2024-01-26T05:45:14.010Z,3.80
2024-01-26T05:50:48.010Z,5.70
2024-01-26T05:55:53.165Z,4.40
2024-01-26T06:00:55.346Z,3.60
2024-01-26T06:06:05.275Z,4.90
2024-01-26T06:11:08.441Z,5.60
2024-01-26T06:16:14.730Z,4.60
2024-01-26T06:21:16.762Z,5.80
2024-01-26T06:26:20.800Z,5.70
2024-01-26T06:31:33.064Z,3.10
2024-01-26T06:36:45.796Z,3.30
2024-01-26T06:42:26.016Z,4.50
2024-01-26T06:47:28.341Z,4.90
2024-01-26T06:52:33.671Z,4.10
2024-01-26T06:57:39.242Z,3.70
2024-01-26T07:02:47.235Z,5.00
2024-01-26T07:07:59.458Z,3.60
2024-01-26T07:13:05.250Z,4.40
2024-01-26T07:18:30.399Z,2.90
2024-01-26T07:23:32.752Z,4.70
2024-01-26T07:28:44.959Z,3.70
2024-01-26T07:34:09.474Z,4.50
2024-01-26T07:39:11.987Z,4.70
2024-01-26T07:44:19.681Z,4.90
2024-01-26T07:49:21.964Z,7.20
2024-01-26T07:54:24.208Z,13.20
2024-01-26T07:59:28.899Z,12.90
2024-01-26T08:04:31.668Z,12.20
2024-01-26T08:10:06.770Z,7.80
2024-01-26T08:15:50.969Z,7.60
2024-01-26T08:20:53.373Z,7.90
2024-01-26T08:26:10.892Z,8.50
2024-01-26T08:31:23.538Z,8.60
2024-01-26T08:36:40.227Z,11.00
2024-01-26T08:41:56.212Z,9.10
2024-01-26T08:47:14.505Z,7.10
2024-01-26T08:53:29.885Z,6.50
2024-01-26T08:59:10.537Z,5.00
2024-01-26T09:04:23.965Z,4.80
2024-01-26T09:09:29.225Z,4.80
2024-01-26T09:14:31.476Z,4.00
2024-01-26T09:19:59.894Z,3.70
2024-01-26T09:25:14.197Z,4.90
2024-01-26T09:30:26.624Z,4.40
2024-01-26T09:35:28.849Z,4.80
2024-01-26T09:40:31.227Z,5.20
2024-01-26T09:45:38.348Z,4.50
2024-01-26T09:50:42.442Z,6.50
2024-01-26T09:56:06.861Z,6.50
2024-01-26T10:01:44.676Z,5.70
2024-01-26T10:07:00.667Z,5.70
2024-01-26T10:12:05.990Z,5.90
2024-01-26T10:17:08.138Z,5.50
2024-01-26T10:22:10.364Z,3.90
2024-01-26T10:27:12.922Z,3.30
2024-01-26T10:37:59.017Z,4.30
2024-01-26T10:43:02.114Z,4.20
2024-01-26T10:48:13.537Z,5.20
2024-01-26T10:53:17.726Z,4.60
2024-01-26T10:58:34.363Z,3.50
2024-01-26T11:04:07.154Z,4.40
2024-01-26T11:09:22.796Z,5.80
2024-01-26T11:14:40.949Z,8.70
2024-01-26T11:20:20.566Z,4.30
2024-01-26T11:25:22.983Z,3.50
2024-01-26T11:31:12.441Z,6.00
2024-01-26T11:36:39.872Z,3.80
2024-01-26T11:41:45.680Z,5.10
2024-01-26T11:46:47.923Z,5.00
2024-01-26T11:51:50.292Z,6.00
2024-01-26T11:57:03.649Z,6.90
2024-01-26T12:02:16.668Z,6.70
2024-01-26T12:07:33.305Z,8.60
2024-01-26T12:13:07.567Z,6.30
2024-01-26T12:18:31.564Z,5.50
2024-01-26T12:23:34.896Z,7.90
2024-01-26T12:28:51.743Z,6.20
2024-01-26T12:34:10.797Z,6.60
2024-01-26T12:39:13.437Z,7.00
2024-01-26T12:44:15.597Z,5.00
2024-01-26T12:54:52.731Z,6.60
2024-01-26T12:59:55.102Z,8.00
2024-01-26T13:05:01.475Z,5.40
2024-01-26T13:10:08.458Z,8.30
2024-01-26T13:15:11.356Z,7.30
2024-01-26T13:20:20.292Z,8.10
2024-01-26T13:25:31.185Z,7.30
2024-01-26T13:30:53.623Z,9.90
2024-01-26T13:36:07.693Z,8.70
2024-01-26T13:42:03.392Z,7.40
2024-01-26T13:47:05.923Z,8.50
2024-01-26T13:52:08.009Z,9.80
2024-01-26T13:57:15.042Z,11.10
2024-01-26T14:02:17.256Z,11.50
2024-01-26T14:07:38.974Z,12.00
2024-01-26T14:13:10.977Z,11.70
2024-01-26T14:18:29.233Z,14.10
2024-01-26T14:24:08.705Z,12.50
2024-01-26T14:29:18.654Z,12.80
2024-01-26T14:34:20.846Z,20.90
2024-01-26T14:39:23.720Z,16.90
2024-01-26T14:44:51.324Z,13.60
2024-01-26T14:50:57.648Z,14.00
2024-01-26T14:55:59.827Z,11.50
2024-01-26T15:01:01.923Z,12.70
2024-01-26T15:06:25.325Z,11.40
2024-01-26T15:11:27.576Z,13.20
2024-01-26T15:16:33.787Z,16.20
2024-01-26T15:21:41.865Z,28.80
2024-01-26T15:26:47.891Z,43.60
2024-01-26T15:32:13.210Z,57.90
2024-01-26T15:37:18.960Z,31.40
2024-01-26T15:42:21.376Z,34.00
2024-01-26T15:47:23.670Z,27.20
2024-01-26T15:52:30.770Z,22.10
2024-01-26T15:57:47.097Z,22.00
2024-01-26T16:02:52.582Z,20.80
2024-01-26T16:08:02.944Z,19.90
2024-01-26T16:13:05.426Z,21.70
2024-01-26T16:18:17.776Z,23.60
2024-01-26T16:23:19.998Z,25.50
2024-01-26T16:28:47.905Z,22.00
2024-01-26T16:33:50.283Z,25.40
2024-01-26T16:38:55.987Z,21.70
2024-01-26T16:44:18.964Z,22.70
2024-01-26T16:49:45.803Z,26.80
2024-01-26T16:55:12.402Z,24.00
2024-01-26T17:01:05.231Z,25.50
2024-01-26T17:06:27.781Z,26.10
2024-01-26T17:11:33.016Z,28.90
2024-01-26T17:17:10.612Z,34.90
2024-01-26T17:22:36.202Z,38.80
2024-01-26T17:27:38.724Z,35.30
2024-01-26T17:32:41.304Z,29.70
2024-01-26T17:38:00.587Z,29.60
2024-01-26T17:43:08.504Z,28.10
2024-01-26T17:48:13.790Z,23.60
2024-01-26T17:53:26.207Z,22.90
2024-01-26T17:58:30.317Z,23.50
2024-01-26T18:03:32.765Z,23.10
2024-01-26T18:08:35.411Z,25.10
2024-01-26T18:13:47.790Z,25.70
2024-01-26T18:18:52.276Z,27.40
2024-01-26T18:23:55.923Z,37.90
2024-01-26T18:28:58.102Z,35.20
2024-01-26T18:34:01.497Z,37.00
2024-01-26T18:39:04.770Z,33.70
2024-01-26T18:44:09.183Z,30.90
2024-01-26T18:49:27.404Z,31.10
2024-01-26T18:54:39.095Z,32.80
2024-01-26T18:59:46.384Z,31.50
2024-01-26T19:05:09.686Z,29.70
2024-01-26T19:10:42.497Z,26.00
2024-01-26T19:15:46.407Z,25.40
2024-01-26T19:20:51.949Z,27.40
2024-01-26T19:26:06.530Z,30.90
2024-01-26T19:31:11.863Z,23.40
2024-01-26T19:36:18.631Z,26.10
2024-01-26T19:41:23.289Z,27.90
2024-01-26T19:46:34.877Z,28.90
2024-01-26T19:51:50.823Z,26.70
2024-01-26T19:56:55.977Z,32.00
2024-01-26T20:02:18.746Z,31.90
2024-01-26T20:07:43.636Z,31.60
2024-01-26T20:13:08.976Z,34.00
2024-01-26T20:18:16.184Z,34.50
2024-01-26T20:24:18.224Z,36.80
2024-01-26T20:29:28.270Z,39.70
2024-01-26T20:34:52.188Z,38.40
2024-01-26T20:40:18.085Z,42.20
2024-01-26T20:45:20.562Z,39.70
2024-01-26T20:50:28.998Z,44.90
2024-01-26T20:55:33.220Z,41.50
2024-01-26T21:00:38.364Z,50.30
2024-01-26T21:05:43.446Z,43.10
2024-01-26T21:10:48.765Z,44.90
2024-01-26T21:16:01.797Z,45.60
2024-01-26T21:21:15.293Z,46.80
2024-01-26T21:26:27.997Z,45.30
2024-01-26T21:31:50.733Z,45.60
2024-01-26T21:37:42.847Z,47.70
2024-01-26T21:43:22.215Z,43.90
2024-01-26T21:49:03.476Z,49.20
2024-01-26T21:54:22.890Z,44.20
2024-01-26T22:00:00.810Z,48.70
2024-01-26T22:05:03.183Z,47.70
2024-01-26T22:10:08.502Z,60.10
2024-01-26T22:15:31.052Z,67.70
2024-01-26T22:20:54.106Z,59.60
2024-01-26T22:26:17.475Z,55.30
2024-01-26T22:31:32.274Z,52.30
2024-01-26T22:36:37.358Z,46.10
2024-01-26T22:41:52.872Z,44.20
2024-01-26T22:46:58.414Z,39.20
2024-01-26T22:52:00.691Z,33.40
2024-01-26T22:57:13.997Z,34.60
2024-01-26T23:02:53.449Z,36.40
2024-01-26T23:08:16.267Z,36.30
2024-01-26T23:13:18.170Z,36.70
2024-01-26T23:18:20.429Z,37.90
2024-01-26T23:23:22.720Z,36.90
2024-01-26T23:28:27.874Z,30.60
2024-01-26T23:33:33.187Z,22.50
2024-01-26T23:38:38.450Z,16.50
2024-01-26T23:43:40.597Z,16.00
2024-01-26T23:49:09.330Z,11.20
2024-01-26T23:54:16.062Z,11.40
2024-01-26T23:59:25.913Z,9.40
